sensor_id;sensor_type;location;lat;lon;timestamp;P1;durP1;ratioP1;P2;durP2;ratioP2
69573;SDS011;62840;52.366;5.980;2024-01-30T00:02:10;15.60;;;8.50;;
69573;SDS011;62840;52.366;5.980;2024-01-30T00:04:36;13.00;;;7.75;;
69573;SDS011;62840;52.366;5.980;2024-01-30T00:07:02;12.60;;;7.60;;
69573;SDS011;62840;52.366;5.980;2024-01-30T00:09:29;12.75;;;7.47;;
69573;SDS011;62840;52.366;5.980;2024-01-30T00:11:55;14.35;;;8.10;;
69573;SDS011;62840;52.366;5.980;2024-01-30T00:14:24;14.30;;;7.93;;
69573;SDS011;62840;52.366;5.980;2024-01-30T00:16:50;13.95;;;7.00;;
69573;SDS011;62840;52.366;5.980;2024-01-30T00:19:16;13.98;;;7.60;;
69573;SDS011;62840;52.366;5.980;2024-01-30T00:21:42;12.27;;;7.05;;
69573;SDS011;62840;52.366;5.980;2024-01-30T00:24:08;13.53;;;7.57;;
69573;SDS011;62840;52.366;5.980;2024-01-30T00:26:34;14.32;;;7.05;;
69573;SDS011;62840;52.366;5.980;2024-01-30T00:29:00;13.80;;;7.70;;
69573;SDS011;62840;52.366;5.980;2024-01-30T00:31:29;13.23;;;7.75;;
69573;SDS011;62840;52.366;5.980;2024-01-30T00:33:55;14.20;;;7.30;;
69573;SDS011;62840;52.366;5.980;2024-01-30T00:36:21;15.00;;;7.60;;
69573;SDS011;62840;52.366;5.980;2024-01-30T00:38:46;12.60;;;6.78;;
69573;SDS011;62840;52.366;5.980;2024-01-30T00:41:12;12.23;;;7.30;;
69573;SDS011;62840;52.366;5.980;2024-01-30T00:43:39;12.10;;;6.55;;
69573;SDS011;62840;52.366;5.980;2024-01-30T00:46:05;10.77;;;6.63;;
69573;SDS011;62840;52.366;5.980;2024-01-30T00:48:33;14.82;;;7.28;;
69573;SDS011;62840;52.366;5.980;2024-01-30T00:50:59;11.27;;;6.63;;
69573;SDS011;62840;52.366;5.980;2024-01-30T00:53:25;12.63;;;6.55;;
69573;SDS011;62840;52.366;5.980;2024-01-30T00:55:51;11.27;;;6.53;;
69573;SDS011;62840;52.366;5.980;2024-01-30T00:58:17;12.70;;;6.90;;
69573;SDS011;62840;52.366;5.980;2024-01-30T01:00:43;11.82;;;7.00;;
69573;SDS011;62840;52.366;5.980;2024-01-30T01:03:09;12.32;;;6.97;;
69573;SDS011;62840;52.366;5.980;2024-01-30T01:05:37;12.37;;;7.37;;
69573;SDS011;62840;52.366;5.980;2024-01-30T01:08:03;11.95;;;7.07;;
69573;SDS011;62840;52.366;5.980;2024-01-30T01:10:30;12.25;;;6.18;;
69573;SDS011;62840;52.366;5.980;2024-01-30T01:12:56;11.52;;;6.32;;
69573;SDS011;62840;52.366;5.980;2024-01-30T01:15:22;12.00;;;6.73;;
69573;SDS011;62840;52.366;5.980;2024-01-30T01:17:47;12.35;;;6.80;;
69573;SDS011;62840;52.366;5.980;2024-01-30T01:20:13;11.50;;;6.90;;
69573;SDS011;62840;52.366;5.980;2024-01-30T01:22:42;13.82;;;6.82;;
69573;SDS011;62840;52.366;5.980;2024-01-30T01:25:08;11.52;;;6.70;;
69573;SDS011;62840;52.366;5.980;2024-01-30T01:27:34;12.55;;;6.88;;
69573;SDS011;62840;52.366;5.980;2024-01-30T01:30:00;13.00;;;6.50;;
69573;SDS011;62840;52.366;5.980;2024-01-30T01:32:26;11.85;;;6.22;;
69573;SDS011;62840;52.366;5.980;2024-01-30T01:34:52;13.88;;;6.95;;
69573;SDS011;62840;52.366;5.980;2024-01-30T01:37:17;11.73;;;6.30;;
69573;SDS011;62840;52.366;5.980;2024-01-30T01:39:47;11.98;;;6.53;;
69573;SDS011;62840;52.366;5.980;2024-01-30T01:42:12;12.43;;;6.20;;
69573;SDS011;62840;52.366;5.980;2024-01-30T01:44:38;10.80;;;6.30;;
69573;SDS011;62840;52.366;5.980;2024-01-30T01:47:04;11.70;;;6.63;;
69573;SDS011;62840;52.366;5.980;2024-01-30T01:49:31;11.80;;;6.28;;
69573;SDS011;62840;52.366;5.980;2024-01-30T01:51:57;11.55;;;6.78;;
69573;SDS011;62840;52.366;5.980;2024-01-30T01:54:24;12.25;;;7.07;;
69573;SDS011;62840;52.366;5.980;2024-01-30T01:56:55;13.20;;;6.97;;
69573;SDS011;62840;52.366;5.980;2024-01-30T01:59:21;12.13;;;6.97;;
69573;SDS011;62840;52.366;5.980;2024-01-30T02:01:50;12.18;;;6.50;;
69573;SDS011;62840;52.366;5.980;2024-01-30T02:04:18;12.35;;;6.55;;
69573;SDS011;62840;52.366;5.980;2024-01-30T02:06:44;12.10;;;6.45;;
69573;SDS011;62840;52.366;5.980;2024-01-30T02:09:10;11.53;;;6.43;;
69573;SDS011;62840;52.366;5.980;2024-01-30T02:11:35;10.75;;;6.35;;
69573;SDS011;62840;52.366;5.980;2024-01-30T02:14:05;11.77;;;6.53;;
69573;SDS011;62840;52.366;5.980;2024-01-30T02:16:31;11.80;;;6.90;;
69573;SDS011;62840;52.366;5.980;2024-01-30T02:18:57;12.25;;;6.28;;
69573;SDS011;62840;52.366;5.980;2024-01-30T02:21:25;13.18;;;6.82;;
69573;SDS011;62840;52.366;5.980;2024-01-30T02:23:51;11.98;;;7.00;;
69573;SDS011;62840;52.366;5.980;2024-01-30T02:26:20;12.77;;;6.35;;
69573;SDS011;62840;52.366;5.980;2024-01-30T02:28:46;12.33;;;6.60;;
69573;SDS011;62840;52.366;5.980;2024-01-30T02:31:12;15.70;;;7.05;;
69573;SDS011;62840;52.366;5.980;2024-01-30T02:33:38;9.93;;;5.82;;
69573;SDS011;62840;52.366;5.980;2024-01-30T02:36:04;10.77;;;5.97;;
69573;SDS011;62840;52.366;5.980;2024-01-30T02:38:33;10.77;;;6.10;;
69573;SDS011;62840;52.366;5.980;2024-01-30T02:40:59;11.10;;;5.40;;
69573;SDS011;62840;52.366;5.980;2024-01-30T02:43:24;10.23;;;6.05;;
69573;SDS011;62840;52.366;5.980;2024-01-30T02:45:50;12.90;;;5.97;;
69573;SDS011;62840;52.366;5.980;2024-01-30T02:48:16;9.93;;;5.78;;
69573;SDS011;62840;52.366;5.980;2024-01-30T02:50:42;10.47;;;5.70;;
69573;SDS011;62840;52.366;5.980;2024-01-30T02:53:08;9.63;;;5.70;;
69573;SDS011;62840;52.366;5.980;2024-01-30T02:55:36;10.77;;;5.93;;
69573;SDS011;62840;52.366;5.980;2024-01-30T02:58:02;12.98;;;5.93;;
69573;SDS011;62840;52.366;5.980;2024-01-30T03:00:29;11.40;;;5.53;;
69573;SDS011;62840;52.366;5.980;2024-01-30T03:02:54;8.75;;;5.15;;
69573;SDS011;62840;52.366;5.980;2024-01-30T03:05:20;8.65;;;5.25;;
69573;SDS011;62840;52.366;5.980;2024-01-30T03:07:47;11.90;;;5.70;;
69573;SDS011;62840;52.366;5.980;2024-01-30T03:10:13;10.05;;;5.13;;
69573;SDS011;62840;52.366;5.980;2024-01-30T03:12:41;10.63;;;6.20;;
69573;SDS011;62840;52.366;5.980;2024-01-30T03:15:07;10.67;;;5.83;;
69573;SDS011;62840;52.366;5.980;2024-01-30T03:17:34;11.75;;;5.30;;
69573;SDS011;62840;52.366;5.980;2024-01-30T03:20:00;10.75;;;5.28;;
69573;SDS011;62840;52.366;5.980;2024-01-30T03:22:25;8.23;;;5.07;;
69573;SDS011;62840;52.366;5.980;2024-01-30T03:24:51;9.50;;;5.25;;
69573;SDS011;62840;52.366;5.980;2024-01-30T03:27:17;11.60;;;5.90;;
69573;SDS011;62840;52.366;5.980;2024-01-30T03:29:46;9.10;;;5.00;;
69573;SDS011;62840;52.366;5.980;2024-01-30T03:32:12;9.68;;;5.47;;
69573;SDS011;62840;52.366;5.980;2024-01-30T03:34:37;9.48;;;5.60;;
69573;SDS011;62840;52.366;5.980;2024-01-30T03:37:04;8.40;;;5.20;;
69573;SDS011;62840;52.366;5.980;2024-01-30T03:39:30;10.82;;;5.75;;
69573;SDS011;62840;52.366;5.980;2024-01-30T03:41:56;12.32;;;5.72;;
69573;SDS011;62840;52.366;5.980;2024-01-30T03:44:22;10.63;;;5.50;;
69573;SDS011;62840;52.366;5.980;2024-01-30T03:46:50;12.63;;;5.45;;
69573;SDS011;62840;52.366;5.980;2024-01-30T03:49:16;10.90;;;5.90;;
69573;SDS011;62840;52.366;5.980;2024-01-30T03:51:42;13.45;;;5.80;;
69573;SDS011;62840;52.366;5.980;2024-01-30T03:54:08;11.40;;;5.70;;
69573;SDS011;62840;52.366;5.980;2024-01-30T03:56:34;10.07;;;5.47;;
69573;SDS011;62840;52.366;5.980;2024-01-30T03:59:00;10.32;;;6.43;;
69573;SDS011;62840;52.366;5.980;2024-01-30T04:01:26;11.70;;;6.30;;
69573;SDS011;62840;52.366;5.980;2024-01-30T04:03:54;10.50;;;5.45;;
69573;SDS011;62840;52.366;5.980;2024-01-30T04:06:20;11.05;;;5.60;;
69573;SDS011;62840;52.366;5.980;2024-01-30T04:08:46;8.63;;;5.30;;
69573;SDS011;62840;52.366;5.980;2024-01-30T04:11:12;11.35;;;5.68;;
69573;SDS011;62840;52.366;5.980;2024-01-30T04:13:38;10.80;;;5.75;;
69573;SDS011;62840;52.366;5.980;2024-01-30T04:16:04;10.17;;;5.47;;
69573;SDS011;62840;52.366;5.980;2024-01-30T04:18:31;13.50;;;6.32;;
69573;SDS011;62840;52.366;5.980;2024-01-30T04:21:00;11.65;;;5.97;;
69573;SDS011;62840;52.366;5.980;2024-01-30T04:23:26;10.75;;;6.15;;
69573;SDS011;62840;52.366;5.980;2024-01-30T04:25:51;9.63;;;5.27;;
69573;SDS011;62840;52.366;5.980;2024-01-30T04:28:18;11.75;;;5.75;;
69573;SDS011;62840;52.366;5.980;2024-01-30T04:30:44;11.25;;;5.60;;
69573;SDS011;62840;52.366;5.980;2024-01-30T04:33:10;10.77;;;5.83;;
69573;SDS011;62840;52.366;5.980;2024-01-30T04:35:36;10.27;;;6.00;;
69573;SDS011;62840;52.366;5.980;2024-01-30T04:38:04;9.93;;;5.45;;
69573;SDS011;62840;52.366;5.980;2024-01-30T04:40:30;10.87;;;5.97;;
69573;SDS011;62840;52.366;5.980;2024-01-30T04:42:56;12.32;;;5.63;;
69573;SDS011;62840;52.366;5.980;2024-01-30T04:45:22;12.30;;;5.88;;
69573;SDS011;62840;52.366;5.980;2024-01-30T04:47:48;10.87;;;5.53;;
69573;SDS011;62840;52.366;5.980;2024-01-30T04:50:14;10.13;;;5.82;;
69573;SDS011;62840;52.366;5.980;2024-01-30T04:52:40;9.82;;;5.50;;
69573;SDS011;62840;52.366;5.980;2024-01-30T04:55:09;11.47;;;5.53;;
69573;SDS011;62840;52.366;5.980;2024-01-30T04:57:34;9.65;;;5.15;;
69573;SDS011;62840;52.366;5.980;2024-01-30T05:00:00;11.27;;;5.80;;
69573;SDS011;62840;52.366;5.980;2024-01-30T05:02:27;8.33;;;4.50;;
69573;SDS011;62840;52.366;5.980;2024-01-30T05:04:52;10.30;;;5.80;;
69573;SDS011;62840;52.366;5.980;2024-01-30T05:07:18;10.02;;;5.45;;
69573;SDS011;62840;52.366;5.980;2024-01-30T05:09:44;9.82;;;5.50;;
69573;SDS011;62840;52.366;5.980;2024-01-30T05:12:13;9.80;;;5.10;;
69573;SDS011;62840;52.366;5.980;2024-01-30T05:14:39;9.52;;;5.20;;
69573;SDS011;62840;52.366;5.980;2024-01-30T05:17:05;10.32;;;5.10;;
69573;SDS011;62840;52.366;5.980;2024-01-30T05:19:31;10.80;;;5.33;;
69573;SDS011;62840;52.366;5.980;2024-01-30T05:21:56;9.23;;;5.43;;
69573;SDS011;62840;52.366;5.980;2024-01-30T05:24:22;10.10;;;5.40;;
69573;SDS011;62840;52.366;5.980;2024-01-30T05:26:48;8.90;;;4.93;;
69573;SDS011;62840;52.366;5.980;2024-01-30T05:29:17;13.65;;;5.97;;
69573;SDS011;62840;52.366;5.980;2024-01-30T05:31:43;9.10;;;4.90;;
69573;SDS011;62840;52.366;5.980;2024-01-30T05:34:09;11.32;;;5.40;;
69573;SDS011;62840;52.366;5.980;2024-01-30T05:36:34;10.15;;;5.35;;
69573;SDS011;62840;52.366;5.980;2024-01-30T05:39:00;10.33;;;5.07;;
69573;SDS011;62840;52.366;5.980;2024-01-30T05:41:26;10.02;;;5.38;;
69573;SDS011;62840;52.366;5.980;2024-01-30T05:43:53;9.35;;;5.15;;
69573;SDS011;62840;52.366;5.980;2024-01-30T05:46:21;9.87;;;5.43;;
69573;SDS011;62840;52.366;5.980;2024-01-30T05:48:47;9.18;;;5.28;;
69573;SDS011;62840;52.366;5.980;2024-01-30T05:51:13;10.85;;;5.65;;
69573;SDS011;62840;52.366;5.980;2024-01-30T05:53:39;9.75;;;5.43;;
69573;SDS011;62840;52.366;5.980;2024-01-30T05:56:05;9.03;;;4.80;;
69573;SDS011;62840;52.366;5.980;2024-01-30T05:58:32;8.95;;;5.20;;
69573;SDS011;62840;52.366;5.980;2024-01-30T06:00:58;9.27;;;5.25;;
69573;SDS011;62840;52.366;5.980;2024-01-30T06:03:26;9.70;;;5.47;;
69573;SDS011;62840;52.366;5.980;2024-01-30T06:05:52;10.80;;;5.82;;
69573;SDS011;62840;52.366;5.980;2024-01-30T06:08:18;12.25;;;5.95;;
69573;SDS011;62840;52.366;5.980;2024-01-30T06:10:44;10.82;;;5.63;;
69573;SDS011;62840;52.366;5.980;2024-01-30T06:13:09;10.43;;;5.47;;
69573;SDS011;62840;52.366;5.980;2024-01-30T06:15:35;10.02;;;5.30;;
69573;SDS011;62840;52.366;5.980;2024-01-30T06:18:01;9.37;;;5.83;;
69573;SDS011;62840;52.366;5.980;2024-01-30T06:20:30;10.05;;;5.30;;
69573;SDS011;62840;52.366;5.980;2024-01-30T06:22:56;10.02;;;5.53;;
69573;SDS011;62840;52.366;5.980;2024-01-30T06:25:22;8.93;;;5.32;;
69573;SDS011;62840;52.366;5.980;2024-01-30T06:27:47;10.57;;;5.43;;
69573;SDS011;62840;52.366;5.980;2024-01-30T06:30:13;10.20;;;5.45;;
69573;SDS011;62840;52.366;5.980;2024-01-30T06:32:40;11.40;;;5.15;;
69573;SDS011;62840;52.366;5.980;2024-01-30T06:35:06;10.57;;;5.27;;
69573;SDS011;62840;52.366;5.980;2024-01-30T06:37:35;11.80;;;5.95;;
69573;SDS011;62840;52.366;5.980;2024-01-30T06:40:01;10.23;;;5.82;;
69573;SDS011;62840;52.366;5.980;2024-01-30T06:42:27;10.95;;;5.90;;
69573;SDS011;62840;52.366;5.980;2024-01-30T06:44:53;10.83;;;5.63;;
69573;SDS011;62840;52.366;5.980;2024-01-30T06:47:19;10.10;;;5.43;;
69573;SDS011;62840;52.366;5.980;2024-01-30T06:49:45;10.82;;;5.50;;
69573;SDS011;62840;52.366;5.980;2024-01-30T06:52:10;9.80;;;5.10;;
69573;SDS011;62840;52.366;5.980;2024-01-30T06:54:39;12.50;;;5.60;;
69573;SDS011;62840;52.366;5.980;2024-01-30T06:57:05;11.25;;;5.60;;
69573;SDS011;62840;52.366;5.980;2024-01-30T06:59:31;10.77;;;5.63;;
69573;SDS011;62840;52.366;5.980;2024-01-30T07:01:57;10.75;;;5.07;;
69573;SDS011;62840;52.366;5.980;2024-01-30T07:04:22;12.23;;;5.50;;
69573;SDS011;62840;52.366;5.980;2024-01-30T07:06:48;9.67;;;5.20;;
69573;SDS011;62840;52.366;5.980;2024-01-30T07:09:14;11.35;;;5.47;;
69573;SDS011;62840;52.366;5.980;2024-01-30T07:11:43;11.05;;;5.88;;
69573;SDS011;62840;52.366;5.980;2024-01-30T07:14:09;9.77;;;5.63;;
69573;SDS011;62840;52.366;5.980;2024-01-30T07:16:35;10.90;;;5.60;;
69573;SDS011;62840;52.366;5.980;2024-01-30T07:19:00;10.70;;;5.60;;
69573;SDS011;62840;52.366;5.980;2024-01-30T07:21:26;9.93;;;5.33;;
69573;SDS011;62840;52.366;5.980;2024-01-30T07:23:52;11.88;;;4.88;;
69573;SDS011;62840;52.366;5.980;2024-01-30T07:26:18;10.77;;;5.57;;
69573;SDS011;62840;52.366;5.980;2024-01-30T07:28:47;9.40;;;5.63;;
69573;SDS011;62840;52.366;5.980;2024-01-30T07:31:12;10.20;;;5.47;;
69573;SDS011;62840;52.366;5.980;2024-01-30T07:33:38;10.15;;;5.55;;
69573;SDS011;62840;52.366;5.980;2024-01-30T07:36:04;10.02;;;5.70;;
69573;SDS011;62840;52.366;5.980;2024-01-30T07:38:31;9.80;;;5.50;;
69573;SDS011;62840;52.366;5.980;2024-01-30T07:40:57;10.43;;;5.90;;
69573;SDS011;62840;52.366;5.980;2024-01-30T07:43:23;11.30;;;5.47;;
69573;SDS011;62840;52.366;5.980;2024-01-30T07:45:51;11.07;;;5.28;;
69573;SDS011;62840;52.366;5.980;2024-01-30T07:48:18;10.05;;;5.28;;
69573;SDS011;62840;52.366;5.980;2024-01-30T07:50:44;11.27;;;5.63;;
69573;SDS011;62840;52.366;5.980;2024-01-30T07:53:09;11.88;;;6.03;;
69573;SDS011;62840;52.366;5.980;2024-01-30T07:55:36;9.40;;;5.13;;
69573;SDS011;62840;52.366;5.980;2024-01-30T07:58:02;10.30;;;5.05;;
69573;SDS011;62840;52.366;5.980;2024-01-30T08:00:28;11.48;;;5.35;;
69573;SDS011;62840;52.366;5.980;2024-01-30T08:02:56;10.25;;;5.18;;
69573;SDS011;62840;52.366;5.980;2024-01-30T08:05:22;10.10;;;5.23;;
69573;SDS011;62840;52.366;5.980;2024-01-30T08:07:48;10.45;;;5.43;;
69573;SDS011;62840;52.366;5.980;2024-01-30T08:10:15;10.68;;;5.35;;
69573;SDS011;62840;52.366;5.980;2024-01-30T08:12:41;7.70;;;3.92;;
69573;SDS011;62840;52.366;5.980;2024-01-30T08:15:07;9.70;;;4.80;;
69573;SDS011;62840;52.366;5.980;2024-01-30T08:17:34;9.48;;;4.75;;
69573;SDS011;62840;52.366;5.980;2024-01-30T08:20:03;10.07;;;5.13;;
69573;SDS011;62840;52.366;5.980;2024-01-30T08:22:30;9.70;;;4.68;;
69573;SDS011;62840;52.366;5.980;2024-01-30T08:24:56;10.77;;;5.05;;
69573;SDS011;62840;52.366;5.980;2024-01-30T08:27:22;10.50;;;5.00;;
69573;SDS011;62840;52.366;5.980;2024-01-30T08:29:48;10.05;;;4.82;;
69573;SDS011;62840;52.366;5.980;2024-01-30T08:32:13;9.27;;;4.88;;
69573;SDS011;62840;52.366;5.980;2024-01-30T08:34:39;8.10;;;4.05;;
69573;SDS011;62840;52.366;5.980;2024-01-30T08:37:08;8.10;;;4.35;;
69573;SDS011;62840;52.366;5.980;2024-01-30T08:39:34;8.88;;;5.63;;
69573;SDS011;62840;52.366;5.980;2024-01-30T08:42:00;8.47;;;4.50;;
69573;SDS011;62840;52.366;5.980;2024-01-30T08:44:25;11.43;;;4.18;;
69573;SDS011;62840;52.366;5.980;2024-01-30T08:46:51;12.88;;;5.18;;
69573;SDS011;62840;52.366;5.980;2024-01-30T08:49:17;11.17;;;4.60;;
69573;SDS011;62840;52.366;5.980;2024-01-30T08:51:45;9.30;;;4.63;;
69573;SDS011;62840;52.366;5.980;2024-01-30T08:54:13;10.18;;;5.15;;
69573;SDS011;62840;52.366;5.980;2024-01-30T08:56:39;9.45;;;4.40;;
69573;SDS011;62840;52.366;5.980;2024-01-30T08:59:05;13.40;;;4.60;;
69573;SDS011;62840;52.366;5.980;2024-01-30T09:01:31;10.18;;;4.75;;
69573;SDS011;62840;52.366;5.980;2024-01-30T09:03:57;10.07;;;4.50;;
69573;SDS011;62840;52.366;5.980;2024-01-30T09:06:23;11.50;;;4.75;;
69573;SDS011;62840;52.366;5.980;2024-01-30T09:08:48;10.85;;;4.30;;
69573;SDS011;62840;52.366;5.980;2024-01-30T09:11:17;9.88;;;4.68;;
69573;SDS011;62840;52.366;5.980;2024-01-30T09:13:43;9.63;;;4.37;;
69573;SDS011;62840;52.366;5.980;2024-01-30T09:16:09;10.77;;;4.32;;
69573;SDS011;62840;52.366;5.980;2024-01-30T09:18:35;11.27;;;4.40;;
69573;SDS011;62840;52.366;5.980;2024-01-30T09:21:01;8.10;;;4.50;;
69573;SDS011;62840;52.366;5.980;2024-01-30T09:23:27;9.48;;;4.75;;
69573;SDS011;62840;52.366;5.980;2024-01-30T09:25:53;12.10;;;4.55;;
69573;SDS011;62840;52.366;5.980;2024-01-30T09:28:22;13.45;;;4.35;;
69573;SDS011;62840;52.366;5.980;2024-01-30T09:30:47;9.02;;;5.05;;
69573;SDS011;62840;52.366;5.980;2024-01-30T09:33:13;11.10;;;4.70;;
69573;SDS011;62840;52.366;5.980;2024-01-30T09:35:39;12.43;;;4.82;;
69573;SDS011;62840;52.366;5.980;2024-01-30T09:38:05;10.38;;;4.75;;
69573;SDS011;62840;52.366;5.980;2024-01-30T09:40:31;13.33;;;5.00;;
69573;SDS011;62840;52.366;5.980;2024-01-30T09:42:58;9.48;;;4.53;;
69573;SDS011;62840;52.366;5.980;2024-01-30T09:45:27;10.90;;;4.70;;
69573;SDS011;62840;52.366;5.980;2024-01-30T09:47:53;10.30;;;4.40;;
69573;SDS011;62840;52.366;5.980;2024-01-30T09:50:19;11.07;;;4.93;;
69573;SDS011;62840;52.366;5.980;2024-01-30T09:52:45;10.32;;;4.72;;
69573;SDS011;62840;52.366;5.980;2024-01-30T09:55:12;10.23;;;4.75;;
69573;SDS011;62840;52.366;5.980;2024-01-30T09:57:38;15.18;;;4.65;;
69573;SDS011;62840;52.366;5.980;2024-01-30T10:00:06;13.35;;;5.38;;
69573;SDS011;62840;52.366;5.980;2024-01-30T10:02:36;11.73;;;4.57;;
69573;SDS011;62840;52.366;5.980;2024-01-30T10:05:03;10.30;;;4.93;;
69573;SDS011;62840;52.366;5.980;2024-01-30T10:07:30;10.73;;;5.47;;
69573;SDS011;62840;52.366;5.980;2024-01-30T10:09:56;11.80;;;4.82;;
69573;SDS011;62840;52.366;5.980;2024-01-30T10:12:22;9.97;;;4.70;;
69573;SDS011;62840;52.366;5.980;2024-01-30T10:14:48;9.80;;;4.80;;
69573;SDS011;62840;52.366;5.980;2024-01-30T10:17:14;13.50;;;5.25;;
69573;SDS011;62840;52.366;5.980;2024-01-30T10:19:43;12.23;;;5.03;;
69573;SDS011;62840;52.366;5.980;2024-01-30T10:22:09;13.07;;;5.17;;
69573;SDS011;62840;52.366;5.980;2024-01-30T10:24:35;11.77;;;5.05;;
69573;SDS011;62840;52.366;5.980;2024-01-30T10:27:01;12.07;;;4.75;;
69573;SDS011;62840;52.366;5.980;2024-01-30T10:29:28;10.10;;;4.95;;
69573;SDS011;62840;52.366;5.980;2024-01-30T10:31:57;9.85;;;4.90;;
69573;SDS011;62840;52.366;5.980;2024-01-30T10:34:24;10.00;;;5.20;;
69573;SDS011;62840;52.366;5.980;2024-01-30T10:36:54;10.25;;;5.03;;
69573;SDS011;62840;52.366;5.980;2024-01-30T10:39:34;11.13;;;5.00;;
69573;SDS011;62840;52.366;5.980;2024-01-30T10:42:04;11.57;;;5.40;;
69573;SDS011;62840;52.366;5.980;2024-01-30T10:44:34;11.33;;;5.60;;
69573;SDS011;62840;52.366;5.980;2024-01-30T10:47:13;10.05;;;4.43;;
69573;SDS011;62840;52.366;5.980;2024-01-30T10:49:51;14.18;;;5.60;;
69573;SDS011;62840;52.366;5.980;2024-01-30T10:52:22;10.20;;;5.25;;
69573;SDS011;62840;52.366;5.980;2024-01-30T10:54:49;11.40;;;4.78;;
69573;SDS011;62840;52.366;5.980;2024-01-30T10:57:16;10.80;;;5.00;;
69573;SDS011;62840;52.366;5.980;2024-01-30T10:59:43;9.60;;;4.75;;
69573;SDS011;62840;52.366;5.980;2024-01-30T11:02:11;8.85;;;4.85;;
69573;SDS011;62840;52.366;5.980;2024-01-30T11:04:40;10.15;;;5.13;;
69573;SDS011;62840;52.366;5.980;2024-01-30T11:07:15;11.88;;;4.78;;
69573;SDS011;62840;52.366;5.980;2024-01-30T11:09:50;10.37;;;5.47;;
69573;SDS011;62840;52.366;5.980;2024-01-30T11:12:21;10.55;;;4.75;;
69573;SDS011;62840;52.366;5.980;2024-01-30T11:14:47;11.52;;;5.43;;
69573;SDS011;62840;52.366;5.980;2024-01-30T11:17:13;11.45;;;4.70;;
69573;SDS011;62840;52.366;5.980;2024-01-30T11:19:39;9.07;;;4.60;;
69573;SDS011;62840;52.366;5.980;2024-01-30T11:22:07;9.18;;;4.60;;
69573;SDS011;62840;52.366;5.980;2024-01-30T11:24:36;8.95;;;4.80;;
69573;SDS011;62840;52.366;5.980;2024-01-30T11:27:07;11.45;;;4.65;;
69573;SDS011;62840;52.366;5.980;2024-01-30T11:29:34;8.63;;;4.38;;
69573;SDS011;62840;52.366;5.980;2024-01-30T11:32:01;10.67;;;4.10;;
69573;SDS011;62840;52.366;5.980;2024-01-30T11:34:27;10.38;;;4.30;;
69573;SDS011;62840;52.366;5.980;2024-01-30T11:36:54;9.20;;;4.30;;
69573;SDS011;62840;52.366;5.980;2024-01-30T11:39:23;10.10;;;4.22;;
69573;SDS011;62840;52.366;5.980;2024-01-30T11:41:51;10.67;;;5.00;;
69573;SDS011;62840;52.366;5.980;2024-01-30T11:44:19;10.52;;;4.68;;
69573;SDS011;62840;52.366;5.980;2024-01-30T11:46:46;10.82;;;4.60;;
69573;SDS011;62840;52.366;5.980;2024-01-30T11:49:13;12.90;;;4.90;;
69573;SDS011;62840;52.366;5.980;2024-01-30T11:51:39;8.98;;;4.80;;
69573;SDS011;62840;52.366;5.980;2024-01-30T11:54:07;10.03;;;4.63;;
69573;SDS011;62840;52.366;5.980;2024-01-30T11:56:33;9.63;;;4.20;;
69573;SDS011;62840;52.366;5.980;2024-01-30T11:58:58;9.73;;;4.70;;
69573;SDS011;62840;52.366;5.980;2024-01-30T12:01:27;6.50;;;3.50;;
69573;SDS011;62840;52.366;5.980;2024-01-30T12:03:53;8.03;;;4.07;;
69573;SDS011;62840;52.366;5.980;2024-01-30T12:06:19;8.35;;;3.83;;
69573;SDS011;62840;52.366;5.980;2024-01-30T12:08:55;8.50;;;3.90;;
69573;SDS011;62840;52.366;5.980;2024-01-30T12:11:25;9.88;;;3.58;;
69573;SDS011;62840;52.366;5.980;2024-01-30T12:13:51;8.38;;;3.55;;
69573;SDS011;62840;52.366;5.980;2024-01-30T12:16:19;7.60;;;3.50;;
69573;SDS011;62840;52.366;5.980;2024-01-30T12:18:47;6.20;;;3.10;;
69573;SDS011;62840;52.366;5.980;2024-01-30T12:21:15;8.10;;;3.20;;
69573;SDS011;62840;52.366;5.980;2024-01-30T12:23:41;7.20;;;2.45;;
69573;SDS011;62840;52.366;5.980;2024-01-30T12:26:07;6.65;;;2.95;;
69573;SDS011;62840;52.366;5.980;2024-01-30T12:28:34;9.60;;;3.37;;
69573;SDS011;62840;52.366;5.980;2024-01-30T12:31:01;6.60;;;3.30;;
69573;SDS011;62840;52.366;5.980;2024-01-30T12:33:27;6.60;;;2.63;;
69573;SDS011;62840;52.366;5.980;2024-01-30T12:35:56;6.95;;;3.05;;
69573;SDS011;62840;52.366;5.980;2024-01-30T12:38:26;6.27;;;3.30;;
69573;SDS011;62840;52.366;5.980;2024-01-30T12:40:54;6.57;;;2.88;;
69573;SDS011;62840;52.366;5.980;2024-01-30T12:43:20;7.60;;;2.95;;
69573;SDS011;62840;52.366;5.980;2024-01-30T12:45:46;5.93;;;2.83;;
69573;SDS011;62840;52.366;5.980;2024-01-30T12:48:12;7.78;;;2.30;;
69573;SDS011;62840;52.366;5.980;2024-01-30T12:50:38;6.50;;;2.33;;
69573;SDS011;62840;52.366;5.980;2024-01-30T12:53:07;5.68;;;2.13;;
69573;SDS011;62840;52.366;5.980;2024-01-30T12:55:33;4.40;;;1.38;;
69573;SDS011;62840;52.366;5.980;2024-01-30T12:57:59;5.07;;;1.40;;
69573;SDS011;62840;52.366;5.980;2024-01-30T13:00:24;4.30;;;1.40;;
69573;SDS011;62840;52.366;5.980;2024-01-30T13:02:50;3.17;;;1.47;;
69573;SDS011;62840;52.366;5.980;2024-01-30T13:05:16;3.90;;;1.60;;
69573;SDS011;62840;52.366;5.980;2024-01-30T13:07:43;4.63;;;1.65;;
69573;SDS011;62840;52.366;5.980;2024-01-30T13:10:11;4.43;;;1.60;;
69573;SDS011;62840;52.366;5.980;2024-01-30T13:12:37;4.83;;;1.97;;
69573;SDS011;62840;52.366;5.980;2024-01-30T13:15:04;4.95;;;1.80;;
69573;SDS011;62840;52.366;5.980;2024-01-30T13:17:31;4.75;;;2.40;;
69573;SDS011;62840;52.366;5.980;2024-01-30T13:19:57;5.57;;;2.10;;
69573;SDS011;62840;52.366;5.980;2024-01-30T13:22:23;4.40;;;2.10;;
69573;SDS011;62840;52.366;5.980;2024-01-30T13:24:49;5.53;;;2.22;;
69573;SDS011;62840;52.366;5.980;2024-01-30T13:27:18;4.80;;;1.88;;
69573;SDS011;62840;52.366;5.980;2024-01-30T13:29:46;5.70;;;2.05;;
69573;SDS011;62840;52.366;5.980;2024-01-30T13:32:11;5.38;;;2.05;;
69573;SDS011;62840;52.366;5.980;2024-01-30T13:34:37;5.07;;;2.05;;
69573;SDS011;62840;52.366;5.980;2024-01-30T13:37:03;5.72;;;1.45;;
69573;SDS011;62840;52.366;5.980;2024-01-30T13:39:29;4.23;;;1.57;;
69573;SDS011;62840;52.366;5.980;2024-01-30T13:41:55;4.82;;;1.63;;
69573;SDS011;62840;52.366;5.980;2024-01-30T13:44:24;3.50;;;1.60;;
69573;SDS011;62840;52.366;5.980;2024-01-30T13:46:50;4.03;;;1.63;;
69573;SDS011;62840;52.366;5.980;2024-01-30T13:49:16;5.40;;;1.53;;
69573;SDS011;62840;52.366;5.980;2024-01-30T13:51:42;5.57;;;1.48;;
69573;SDS011;62840;52.366;5.980;2024-01-30T13:54:07;3.88;;;1.80;;
69573;SDS011;62840;52.366;5.980;2024-01-30T13:56:33;4.90;;;1.97;;
69573;SDS011;62840;52.366;5.980;2024-01-30T13:58:59;4.75;;;1.70;;
69573;SDS011;62840;52.366;5.980;2024-01-30T14:01:28;4.55;;;1.52;;
69573;SDS011;62840;52.366;5.980;2024-01-30T14:03:54;5.38;;;1.80;;
69573;SDS011;62840;52.366;5.980;2024-01-30T14:06:20;4.97;;;1.70;;
69573;SDS011;62840;52.366;5.980;2024-01-30T14:08:45;3.92;;;1.50;;
69573;SDS011;62840;52.366;5.980;2024-01-30T14:11:11;6.07;;;1.60;;
69573;SDS011;62840;52.366;5.980;2024-01-30T14:13:37;3.42;;;1.30;;
69573;SDS011;62840;52.366;5.980;2024-01-30T14:16:03;3.85;;;1.38;;
69573;SDS011;62840;52.366;5.980;2024-01-30T14:18:33;6.10;;;1.57;;
69573;SDS011;62840;52.366;5.980;2024-01-30T14:20:59;4.05;;;1.67;;
69573;SDS011;62840;52.366;5.980;2024-01-30T14:23:25;5.85;;;1.48;;
69573;SDS011;62840;52.366;5.980;2024-01-30T14:25:51;3.33;;;1.50;;
69573;SDS011;62840;52.366;5.980;2024-01-30T14:28:17;3.28;;;1.33;;
69573;SDS011;62840;52.366;5.980;2024-01-30T14:30:43;4.28;;;1.27;;
69573;SDS011;62840;52.366;5.980;2024-01-30T14:33:08;3.08;;;1.55;;
69573;SDS011;62840;52.366;5.980;2024-01-30T14:35:37;3.57;;;1.17;;